Adrian Maersk — OXLD2 — position and weather

sailwx.info

Track history (hours):
 
Tides and Currents Weather Stations Pressure Air Temp Water Temp Dewpoint Dewpoint Depression Visibility Wind Speed Wind Dir Waves Ship Positions

Adrian Maersk

Last reported at 2017-Dec-14 12:34 UTC. Time now 2017-Dec-18 05:18 UTC.
Position N 01°19' E 103°19'.

Length 352 m; draft 14.9 m.

Type: Ship (hazmat cat A). MMSI: 220245000.

Date/timePositionNaut miles runAvg speedWind from/ knotsBaromVisibWave heightAir tempDewpointWater temp
2017-Dec-14 12:34N 01°19' E 103°19'312.1
2017-Dec-14 12:19N 01°17' E 103°21'411.8
2017-Dec-14 11:58N 01°15' E 103°25'612.2
2017-Dec-14 11:30N 01°14' E 103°30'4 8.5
2017-Dec-14 11:00N 01°17' E 103°33'3 6.1
2017-Dec-14 10:30N 01°20' E 103°33'0 0.3
2017-Dec-14 09:52N 01°20' E 103°33'0 0.0
2017-Dec-14 09:28N 01°20' E 103°33'0 0.0
2017-Dec-14 08:58N 01°20' E 103°33'0 0.0
2017-Dec-14 08:22N 01°20' E 103°33'0 0.0
2017-Dec-14 07:58N 01°20' E 103°33'0 0.0
2017-Dec-14 07:28N 01°20' E 103°33'0 0.0
2017-Dec-14 06:52N 01°20' E 103°33'0 0.0
2017-Dec-14 06:22N 01°20' E 103°33'0 0.0
2017-Dec-14 05:55N 01°20' E 103°33'0 0.0
2017-Dec-14 05:28N 01°20' E 103°33'0 0.0
2017-Dec-14 04:52N 01°20' E 103°33'0 0.0
2017-Dec-14 02:58N 01°20' E 103°33'0 0.0
2017-Dec-14 02:28N 01°20' E 103°33'0 0.0
2017-Dec-14 01:52N 01°20' E 103°33'0 0.0
2017-Dec-14 01:28N 01°20' E 103°33'0 0.0
2017-Dec-14 00:58N 01°20' E 103°33'0 0.0
2017-Dec-14 00:28N 01°20' E 103°33'0 0.0
2017-Dec-13 23:58N 01°20' E 103°33'0 0.0
2017-Dec-13 23:22N 01°20' E 103°33'0 0.2
2017-Dec-13 23:01N 01°20' E 103°33'1 2.9
2017-Dec-13 22:31N 01°19' E 103°33'4 8.9
2017-Dec-13 22:00N 01°14' E 103°32'4 7.7
2017-Dec-13 21:29N 01°12' E 103°35'611.6
2017-Dec-13 21:00N 01°10' E 103°41'510.0
2017-Dec-13 20:31N 01°10' E 103°46'4 8.0
2017-Dec-13 20:01N 01°12' E 103°49'4 7.4
2017-Dec-13 19:31N 01°15' E 103°47'0 0.6
2017-Dec-13 18:58N 01°16' E 103°47'0 0.0
2017-Dec-13 18:28N 01°16' E 103°47'0 0.1
2017-Dec-13 17:58N 01°16' E 103°47'0 0.1
2017-Dec-13 17:28N 01°16' E 103°47'0 0.0
2017-Dec-13 16:58N 01°16' E 103°47'0 0.1
2017-Dec-13 16:28N 01°16' E 103°47'0 0.1
2017-Dec-13 15:58N 01°16' E 103°47'0 0.0
2017-Dec-13 15:28N 01°16' E 103°47'0 0.1
2017-Dec-13 14:58N 01°16' E 103°47'0 0.0
2017-Dec-13 14:28N 01°16' E 103°47'0 0.0
2017-Dec-13 13:58N 01°16' E 103°47'0 0.1
2017-Dec-13 13:28N 01°16' E 103°47'0 0.0
2017-Dec-13 12:58N 01°16' E 103°47'0 0.0
2017-Dec-13 12:28N 01°16' E 103°47'0 0.1
2017-Dec-13 11:58N 01°16' E 103°47'0 0.1
2017-Dec-13 11:28N 01°16' E 103°47'0 0.0
2017-Dec-13 10:58N 01°16' E 103°47'0 0.1
2017-Dec-13 10:28N 01°16' E 103°47'0 0.1
2017-Dec-13 09:58N 01°16' E 103°47'0 0.0
2017-Dec-13 09:28N 01°16' E 103°47'0 0.0
2017-Dec-13 08:55N 01°16' E 103°47'0 0.1
2017-Dec-13 08:28N 01°16' E 103°47'0 0.0
2017-Dec-13 07:58N 01°16' E 103°47'0 0.0
2017-Dec-13 07:28N 01°16' E 103°47'0 0.1
2017-Dec-13 06:58N 01°16' E 103°47'0 0.0
2017-Dec-13 06:28N 01°16' E 103°47'0 0.0
2017-Dec-13 05:58N 01°16' E 103°47'0 0.0
2017-Dec-13 05:28N 01°16' E 103°47'0 0.1
2017-Dec-13 05:00N 01°16' E 103°47'0 0.8
2017-Dec-13 04:30N 01°15' E 103°47'3 5.9
2017-Dec-13 04:00N 01°13' E 103°48'4 7.9
2017-Dec-13 03:30N 01°13' E 103°52'1 2.0
2017-Dec-13 03:00N 01°14' E 103°53'1 1.5
2017-Dec-13 02:30N 01°14' E 103°54'3 6.7
2017-Dec-13 02:00N 01°15' E 103°57'5 9.6
2017-Dec-13 01:30N 01°16' E 104°02'5 9.8
2017-Dec-13 00:57N 01°17' E 104°07'6 9.3
2017-Dec-13 00:17N 01°18' E 104°13'3 8.9
2017-Dec-12 23:57N 01°18' E 104°16'5 9.1
2017-Dec-12 23:27N 01°19' E 104°20'  
Track history (hours):
 
Tides and Currents Weather Stations Pressure Air Temp Water Temp Dewpoint Dewpoint Depression Visibility Wind Speed Wind Dir Waves Ship Positions

Adrian Maersk

Last reported at 2017-Dec-14 12:34 UTC. Time now 2017-Dec-18 05:18 UTC.
Position N 01°19' E 103°19'.

Length 352 m; draft 14.9 m.

Type: Ship (hazmat cat A). MMSI: 220245000.

Date/timePositionNaut miles runAvg speedWind from/ knotsBaromVisibWave heightAir tempDewpointWater temp
2017-Dec-14 12:34N 01°19' E 103°19'312.1
2017-Dec-14 12:19N 01°17' E 103°21'411.8
2017-Dec-14 11:58N 01°15' E 103°25'612.2
2017-Dec-14 11:30N 01°14' E 103°30'4 8.5
2017-Dec-14 11:00N 01°17' E 103°33'3 6.1
2017-Dec-14 10:30N 01°20' E 103°33'0 0.3
2017-Dec-14 09:52N 01°20' E 103°33'0 0.0
2017-Dec-14 09:28N 01°20' E 103°33'0 0.0
2017-Dec-14 08:58N 01°20' E 103°33'0 0.0
2017-Dec-14 08:22N 01°20' E 103°33'0 0.0
2017-Dec-14 07:58N 01°20' E 103°33'0 0.0
2017-Dec-14 07:28N 01°20' E 103°33'0 0.0
2017-Dec-14 06:52N 01°20' E 103°33'0 0.0
2017-Dec-14 06:22N 01°20' E 103°33'0 0.0
2017-Dec-14 05:55N 01°20' E 103°33'0 0.0
2017-Dec-14 05:28N 01°20' E 103°33'0 0.0
2017-Dec-14 04:52N 01°20' E 103°33'0 0.0
2017-Dec-14 02:58N 01°20' E 103°33'0 0.0
2017-Dec-14 02:28N 01°20' E 103°33'0 0.0
2017-Dec-14 01:52N 01°20' E 103°33'0 0.0
2017-Dec-14 01:28N 01°20' E 103°33'0 0.0
2017-Dec-14 00:58N 01°20' E 103°33'0 0.0
2017-Dec-14 00:28N 01°20' E 103°33'0 0.0
2017-Dec-13 23:58N 01°20' E 103°33'0 0.0
2017-Dec-13 23:22N 01°20' E 103°33'0 0.2
2017-Dec-13 23:01N 01°20' E 103°33'1 2.9
2017-Dec-13 22:31N 01°19' E 103°33'4 8.9
2017-Dec-13 22:00N 01°14' E 103°32'4 7.7
2017-Dec-13 21:29N 01°12' E 103°35'611.6
2017-Dec-13 21:00N 01°10' E 103°41'510.0
2017-Dec-13 20:31N 01°10' E 103°46'4 8.0
2017-Dec-13 20:01N 01°12' E 103°49'4 7.4
2017-Dec-13 19:31N 01°15' E 103°47'0 0.6
2017-Dec-13 18:58N 01°16' E 103°47'0 0.0
2017-Dec-13 18:28N 01°16' E 103°47'0 0.1
2017-Dec-13 17:58N 01°16' E 103°47'0 0.1
2017-Dec-13 17:28N 01°16' E 103°47'0 0.0
2017-Dec-13 16:58N 01°16' E 103°47'0 0.1
2017-Dec-13 16:28N 01°16' E 103°47'0 0.1
2017-Dec-13 15:58N 01°16' E 103°47'0 0.0
2017-Dec-13 15:28N 01°16' E 103°47'0 0.1
2017-Dec-13 14:58N 01°16' E 103°47'0 0.0
2017-Dec-13 14:28N 01°16' E 103°47'0 0.0
2017-Dec-13 13:58N 01°16' E 103°47'0 0.1
2017-Dec-13 13:28N 01°16' E 103°47'0 0.0
2017-Dec-13 12:58N 01°16' E 103°47'0 0.0
2017-Dec-13 12:28N 01°16' E 103°47'0 0.1
2017-Dec-13 11:58N 01°16' E 103°47'0 0.1
2017-Dec-13 11:28N 01°16' E 103°47'0 0.0
2017-Dec-13 10:58N 01°16' E 103°47'0 0.1
2017-Dec-13 10:28N 01°16' E 103°47'0 0.1
2017-Dec-13 09:58N 01°16' E 103°47'0 0.0
2017-Dec-13 09:28N 01°16' E 103°47'0 0.0
2017-Dec-13 08:55N 01°16' E 103°47'0 0.1
2017-Dec-13 08:28N 01°16' E 103°47'0 0.0
2017-Dec-13 07:58N 01°16' E 103°47'0 0.0
2017-Dec-13 07:28N 01°16' E 103°47'0 0.1
2017-Dec-13 06:58N 01°16' E 103°47'0 0.0
2017-Dec-13 06:28N 01°16' E 103°47'0 0.0
2017-Dec-13 05:58N 01°16' E 103°47'0 0.0
2017-Dec-13 05:28N 01°16' E 103°47'0 0.1
2017-Dec-13 05:00N 01°16' E 103°47'0 0.8
2017-Dec-13 04:30N 01°15' E 103°47'3 5.9
2017-Dec-13 04:00N 01°13' E 103°48'4 7.9
2017-Dec-13 03:30N 01°13' E 103°52'1 2.0
2017-Dec-13 03:00N 01°14' E 103°53'1 1.5
2017-Dec-13 02:30N 01°14' E 103°54'3 6.7
2017-Dec-13 02:00N 01°15' E 103°57'5 9.6
2017-Dec-13 01:30N 01°16' E 104°02'5 9.8
2017-Dec-13 00:57N 01°17' E 104°07'6 9.3
2017-Dec-13 00:17N 01°18' E 104°13'3 8.9
2017-Dec-12 23:57N 01°18' E 104°16'5 9.1
2017-Dec-12 23:27N 01°19' E 104°20'  

Dump ship's entire track history